createdAt,value
2022-12-19T00:01:39.831Z,19.88
2022-12-19T00:06:43.918Z,19.35
2022-12-19T00:11:47.818Z,19.17
2022-12-19T00:16:49.528Z,18.17
2022-12-19T00:21:51.276Z,19.95
2022-12-19T00:26:52.913Z,17.88
2022-12-19T00:31:55.021Z,17.85
2022-12-19T00:36:56.725Z,17.20
2022-12-19T00:41:58.301Z,16.65
2022-12-19T00:46:59.943Z,17.48
2022-12-19T00:52:01.636Z,17.05
2022-12-19T00:57:05.148Z,17.17
2022-12-19T01:02:06.888Z,17.17
2022-12-19T01:07:10.591Z,16.35
2022-12-19T01:12:30.650Z,16.20
2022-12-19T01:17:43.632Z,15.38
2022-12-19T01:22:46.767Z,15.10
2022-12-19T01:27:48.384Z,16.67
2022-12-19T01:32:50.005Z,15.50
2022-12-19T01:37:56.095Z,16.23
2022-12-19T01:43:14.991Z,15.70
2022-12-19T01:48:20.722Z,17.52
2022-12-19T01:53:27.479Z,16.77
2022-12-19T01:58:30.661Z,17.15
2022-12-19T02:03:34.799Z,15.82
2022-12-19T02:08:37.492Z,16.60
2022-12-19T02:13:41.177Z,14.60
2022-12-19T02:18:58.246Z,14.70
2022-12-19T02:24:24.358Z,13.93
2022-12-19T02:29:58.426Z,14.55
2022-12-19T02:35:16.077Z,15.60
2022-12-19T02:40:31.977Z,13.38
2022-12-19T02:45:37.860Z,14.57
2022-12-19T02:50:45.171Z,14.60
2022-12-19T02:56:20.342Z,14.63
2022-12-19T03:01:50.071Z,12.93
2022-12-19T03:06:59.872Z,13.98
2022-12-19T03:12:14.247Z,14.27
2022-12-19T03:17:19.314Z,13.82
2022-12-19T03:22:22.417Z,12.48
2022-12-19T03:27:30.062Z,12.38
2022-12-19T03:32:34.702Z,12.18
2022-12-19T03:37:39.656Z,12.07
2022-12-19T03:43:01.179Z,11.88
2022-12-19T03:48:08.775Z,10.75
2022-12-19T03:53:24.411Z,10.25
2022-12-19T03:58:35.429Z,10.50
2022-12-19T04:03:37.421Z,9.50
2022-12-19T04:08:40.185Z,7.60
2022-12-19T04:13:51.778Z,8.45
2022-12-19T04:19:01.955Z,7.57
2022-12-19T04:24:13.549Z,7.43
2022-12-19T04:29:15.985Z,7.65
2022-12-19T04:34:21.116Z,6.78
2022-12-19T04:39:22.903Z,6.82
2022-12-19T04:44:26.465Z,7.10
2022-12-19T04:49:28.691Z,7.57
2022-12-19T04:54:30.327Z,6.97
2022-12-19T04:59:31.936Z,6.72
2022-12-19T05:04:34.626Z,6.55
2022-12-19T05:09:36.289Z,6.57
2022-12-19T05:14:37.913Z,6.13
2022-12-19T05:19:39.629Z,6.47
2022-12-19T05:24:41.437Z,6.70
2022-12-19T05:29:43.034Z,6.68
2022-12-19T05:34:44.743Z,5.90
2022-12-19T05:39:46.345Z,5.60
2022-12-19T05:44:48.180Z,5.50
2022-12-19T05:49:49.868Z,5.53
2022-12-19T05:54:51.463Z,6.00
2022-12-19T05:59:53.058Z,5.95
2022-12-19T06:04:54.803Z,7.05
2022-12-19T06:09:56.542Z,6.43
2022-12-19T06:14:58.196Z,6.40
2022-12-19T06:20:00.242Z,5.93
2022-12-19T06:25:02.022Z,7.10
2022-12-19T06:30:03.962Z,7.25
2022-12-19T06:35:06.165Z,6.93
2022-12-19T06:40:28.617Z,7.30
2022-12-19T06:45:31.231Z,7.15
2022-12-19T06:50:34.158Z,7.10
2022-12-19T06:55:37.710Z,7.10
2022-12-19T07:00:39.350Z,7.50
2022-12-19T07:05:41.717Z,7.10
2022-12-19T07:10:43.350Z,7.93
2022-12-19T07:15:45.042Z,7.40
2022-12-19T07:20:46.764Z,7.65
2022-12-19T07:25:48.502Z,8.35
2022-12-19T07:30:50.133Z,8.07
2022-12-19T07:35:52.407Z,7.60
2022-12-19T07:40:54.054Z,8.75
2022-12-19T07:45:56.953Z,7.90
2022-12-19T07:51:00.730Z,8.00
2022-12-19T07:56:02.399Z,7.60
2022-12-19T08:01:04.328Z,7.95
2022-12-19T08:06:07.513Z,7.50
2022-12-19T08:11:18.589Z,7.05
2022-12-19T08:16:21.032Z,5.97
2022-12-19T08:21:23.536Z,6.90
2022-12-19T08:26:27.752Z,6.57
2022-12-19T08:31:31.928Z,7.15
2022-12-19T08:36:34.479Z,6.75
2022-12-19T08:41:36.881Z,6.25
2022-12-19T08:46:38.925Z,6.70
2022-12-19T08:51:40.592Z,6.97
2022-12-19T08:56:46.763Z,6.75
2022-12-19T09:01:48.991Z,6.72
2022-12-19T09:06:51.462Z,5.93
2022-12-19T09:11:53.188Z,6.68
2022-12-19T09:16:54.812Z,6.70
2022-12-19T09:21:59.397Z,6.70
2022-12-19T09:27:01.015Z,5.82
2022-12-19T09:32:02.859Z,6.25
2022-12-19T09:37:06.189Z,5.90
2022-12-19T09:42:39.342Z,4.82
2022-12-19T09:47:46.512Z,5.88
2022-12-19T09:52:57.900Z,6.10
2022-12-19T09:58:04.737Z,5.53
2022-12-19T10:03:21.064Z,5.57
2022-12-19T10:08:32.078Z,5.95
2022-12-19T10:13:51.036Z,6.20
2022-12-19T10:18:57.417Z,6.03
2022-12-19T10:24:34.837Z,6.40
2022-12-19T10:29:56.985Z,6.13
2022-12-19T10:34:59.407Z,6.43
2022-12-19T10:40:01.030Z,5.60
2022-12-19T10:45:10.045Z,5.40
2022-12-19T10:50:21.799Z,5.53
2022-12-19T10:55:46.622Z,5.38
2022-12-19T11:00:54.323Z,4.97
2022-12-19T11:05:58.151Z,4.70
2022-12-19T11:13:20.880Z,4.70
2022-12-19T11:21:14.497Z,5.07
2022-12-19T11:29:30.011Z,5.20
2022-12-19T11:30:05.575Z,5.00
2022-12-19T11:33:15.812Z,4.53
2022-12-19T11:38:29.447Z,4.90
2022-12-19T11:43:46.143Z,4.88
2022-12-19T11:48:55.811Z,4.80
2022-12-19T11:54:18.918Z,5.15
2022-12-19T11:59:27.438Z,4.65
2022-12-19T12:04:38.365Z,4.68
2022-12-19T12:15:39.681Z,4.80
2022-12-19T12:23:57.432Z,4.65
2022-12-19T12:31:10.968Z,4.47
2022-12-19T12:31:48.338Z,4.22
2022-12-19T12:35:48.611Z,3.95
2022-12-19T12:44:11.295Z,4.20
2022-12-19T12:49:23.372Z,4.85
2022-12-19T12:54:41.845Z,4.82
2022-12-19T12:59:46.698Z,4.78
2022-12-19T13:04:59.179Z,5.30
2022-12-19T13:10:12.881Z,4.82
2022-12-19T13:15:32.612Z,4.90
2022-12-19T13:20:42.798Z,5.10
2022-12-19T13:31:19.993Z,4.40
2022-12-19T13:39:48.681Z,5.47
2022-12-19T13:42:30.498Z,5.15
2022-12-19T13:47:37.820Z,4.45
2022-12-19T13:52:39.495Z,3.80
2022-12-19T13:57:41.324Z,3.95
2022-12-19T14:02:54.551Z,4.80
2022-12-19T14:07:57.206Z,4.55
2022-12-19T14:13:38.263Z,5.03
2022-12-19T14:18:42.309Z,4.13
2022-12-19T14:23:47.326Z,4.20
2022-12-19T14:29:01.538Z,4.32
2022-12-19T14:34:35.534Z,3.80
2022-12-19T14:39:30.816Z,4.28
2022-12-19T14:52:35.817Z,4.07
2022-12-19T14:54:04.079Z,4.03
2022-12-19T14:56:33.142Z,4.25
2022-12-19T15:01:30.134Z,4.35
2022-12-19T15:07:07.035Z,4.05
2022-12-19T15:14:20.715Z,3.85
2022-12-19T15:17:55.342Z,3.80
2022-12-19T15:22:57.075Z,4.20
2022-12-19T15:27:58.678Z,4.20
2022-12-19T15:33:00.304Z,4.30
2022-12-19T15:38:02.259Z,3.08
2022-12-19T15:43:04.652Z,3.58
2022-12-19T15:48:06.344Z,3.67
2022-12-19T15:53:39.989Z,3.47
2022-12-19T15:58:42.611Z,3.40
2022-12-19T16:03:44.667Z,3.50
2022-12-19T16:08:46.468Z,4.05
2022-12-19T16:13:54.378Z,3.88
2022-12-19T16:18:56.057Z,3.85
2022-12-19T16:23:57.732Z,3.65
2022-12-19T16:29:00.224Z,4.25
2022-12-19T16:34:02.481Z,4.28
2022-12-19T16:39:04.145Z,4.35
2022-12-19T16:44:19.086Z,4.65
2022-12-19T16:49:23.039Z,4.18
2022-12-19T16:54:24.674Z,4.45
2022-12-19T16:59:40.328Z,4.43
2022-12-19T17:04:42.162Z,4.60
2022-12-19T17:09:44.468Z,3.90
2022-12-19T17:14:46.098Z,4.53
2022-12-19T17:19:47.875Z,4.10
2022-12-19T17:24:49.504Z,4.25
2022-12-19T17:29:51.214Z,5.45
2022-12-19T17:34:52.971Z,5.07
2022-12-19T17:39:54.921Z,4.82
2022-12-19T17:44:56.700Z,4.93
2022-12-19T17:49:58.524Z,4.38
2022-12-19T17:55:00.258Z,4.80
2022-12-19T18:00:04.281Z,4.32
2022-12-19T18:05:22.037Z,4.47
2022-12-19T18:10:30.854Z,4.82
2022-12-19T18:15:32.583Z,4.88
2022-12-19T18:20:35.035Z,3.95
2022-12-19T18:25:36.843Z,4.30
2022-12-19T18:30:39.167Z,4.82
2022-12-19T18:35:43.266Z,4.18
2022-12-19T18:40:45.980Z,4.60
2022-12-19T18:45:51.359Z,5.07
2022-12-19T18:50:54.864Z,4.32
2022-12-19T18:55:58.239Z,4.63
2022-12-19T19:01:01.382Z,4.70
2022-12-19T19:06:05.451Z,4.47
2022-12-19T19:11:07.270Z,4.40
2022-12-19T19:16:20.539Z,4.43
2022-12-19T19:21:28.748Z,4.57
2022-12-19T19:26:30.389Z,4.43
2022-12-19T19:31:38.463Z,4.50
2022-12-19T19:36:44.904Z,4.60
2022-12-19T19:41:46.584Z,5.07
2022-12-19T19:46:48.783Z,4.30
2022-12-19T19:51:52.384Z,4.88
2022-12-19T19:56:57.297Z,4.40
2022-12-19T20:01:59.198Z,4.07
2022-12-19T20:07:01.096Z,4.70
2022-12-19T20:12:02.804Z,5.15
2022-12-19T20:17:04.415Z,5.47
2022-12-19T20:22:06.059Z,4.18
2022-12-19T20:27:07.689Z,4.93
2022-12-19T20:32:10.084Z,5.18
2022-12-19T20:37:11.749Z,4.68
2022-12-19T20:42:13.307Z,4.55
2022-12-19T20:47:14.995Z,4.82
2022-12-19T20:52:16.671Z,4.03
2022-12-19T20:57:18.302Z,4.97
2022-12-19T21:02:20.132Z,4.35
2022-12-19T21:07:21.901Z,4.60
2022-12-19T21:12:23.699Z,5.35
2022-12-19T21:17:25.427Z,4.60
2022-12-19T21:22:26.982Z,3.97
2022-12-19T21:27:28.578Z,4.30
2022-12-19T21:32:30.237Z,4.18
2022-12-19T21:37:31.861Z,4.43
2022-12-19T21:42:35.035Z,4.95
2022-12-19T21:47:39.434Z,4.45
2022-12-19T21:52:41.481Z,4.70
2022-12-19T21:57:43.051Z,4.53
2022-12-19T22:03:12.207Z,4.65
2022-12-19T22:08:10.896Z,4.70
2022-12-19T22:13:12.475Z,4.72
2022-12-19T22:18:14.150Z,4.13
2022-12-19T22:23:15.725Z,4.35
2022-12-19T22:28:17.398Z,3.88
2022-12-19T22:33:19.044Z,4.25
2022-12-19T22:38:21.070Z,4.45
2022-12-19T22:43:23.798Z,4.45
2022-12-19T22:48:25.482Z,4.20
2022-12-19T22:53:27.121Z,3.70
2022-12-19T22:58:29.317Z,3.90
2022-12-19T23:03:31.532Z,3.55
2022-12-19T23:08:33.972Z,3.45
2022-12-19T23:13:35.671Z,4.38
2022-12-19T23:18:40.722Z,4.25
2022-12-19T23:23:44.444Z,3.85
2022-12-19T23:28:52.829Z,3.97
2022-12-19T23:33:55.444Z,3.78
2022-12-19T23:38:57.508Z,3.30
2022-12-19T23:43:59.159Z,3.85
2022-12-19T23:49:00.814Z,4.55
2022-12-19T23:54:02.573Z,3.95
2022-12-19T23:59:04.214Z,4.03
